Thursday, May 5, 2016, 2:00 PM EDT

KPTB, Petersburg, Dinwiddie County Airport

Location: Petersburg, VA, United States Lat: 37.183
Local Time: 2:00 PM EDT (18:00 GMT) Lon: -77.517
Time Zone: US/Eastern Elev: 193 ft

Show me the last for .
Show Decoded

2016-05-05 13:35 METAR KPTB 051735Z AUTO 36008KT 7SM -RA BKN010 OVC015 13/13 A2959 RMK AO2
                 T01260126 =
2016-05-05 13:15 METAR KPTB 051715Z AUTO 36007G18KT 2 1/2SM VCTSRA BKN010 OVC015 13/13 A2959 RMK
                 AO2 LTG DSNT N AND SW T01290129 =
2016-05-05 12:55 METAR KPTB 051655Z AUTO 02010KT 7SM RA OVC012 13/13 A2960 RMK AO2 LTG DSNT S AND
                 SW T01300130 =
2016-05-05 12:35 METAR KPTB 051635Z AUTO 04010KT 10SM -RA BKN010 OVC015 13/13 A2961 RMK AO2
                 T01300125 =
2016-05-05 12:15 METAR KPTB 051615Z AUTO 05007KT 10SM OVC008 13/13 A2961 RMK AO2 T01300125 =
2016-05-05 11:55 METAR KPTB 051555Z AUTO 02009KT 10SM OVC008 13/13 A2961 RMK AO2 T01300127 =
2016-05-05 11:35 METAR KPTB 051535Z AUTO 03008KT 10SM OVC008 13/13 A2962 RMK AO2 T01250125 =
2016-05-05 11:15 METAR KPTB 051515Z AUTO 03009KT 10SM VCTS OVC008 13/13 A2962 RMK AO2 T01270127 =
2016-05-05 10:55 METAR KPTB 051455Z AUTO 04009KT 10SM OVC008 13/13 A2962 RMK AO2 T01270127 =
2016-05-05 10:35 METAR KPTB 051435Z AUTO 04009KT 10SM OVC008 13/13 A2962 RMK AO2 T01250125 =
2016-05-05 10:15 METAR KPTB 051415Z AUTO 02009KT 7SM -DZ OVC006 12/12 A2962 RMK AO2 LTG DSNT W
                 T01230123 =
2016-05-05 09:55 METAR KPTB 051355Z AUTO 04007KT 7SM -RA OVC008 12/12 A2962 RMK AO2 T01240124 =
2016-05-05 09:35 METAR KPTB 051335Z AUTO 04011KT 3SM BR OVC006 13/13 A2963 RMK AO2 T01250125 =
2016-05-05 09:15 METAR KPTB 051315Z AUTO 06007KT 5SM BR OVC008 13/13 A2963 RMK AO2 T01250125 =
2016-05-05 08:55 METAR KPTB 051255Z AUTO 06006KT 5SM BR OVC008 13/13 A2962 RMK AO2 T01250125 =
2016-05-05 08:35 METAR KPTB 051235Z AUTO 07008KT 5SM BR OVC008 13/13 A2962 RMK AO2 T01280128 =
2016-05-05 08:15 METAR KPTB 051215Z AUTO 05007KT 10SM OVC006 13/13 A2962 RMK AO2 T01250125 =
2016-05-05 07:55 METAR KPTB 051155Z AUTO 04008KT 10SM OVC008 13/13 A2962 RMK AO2 T01300130 10150
                 20130 =
2016-05-05 07:35 METAR KPTB 051135Z AUTO 05007KT 7SM OVC008 13/13 A2962 RMK AO2 LTG DSNT W
                 T01310131 =
2016-05-05 07:15 METAR KPTB 051115Z AUTO 07005KT 10SM OVC008 13/13 A2961 RMK AO2 T01320132 =
2016-05-05 06:55 METAR KPTB 051055Z AUTO 05007KT 10SM OVC008 13/13 A2961 RMK AO2 T01320132 =
2016-05-05 06:35 METAR KPTB 051035Z AUTO 06006KT 10SM BKN006 OVC018 13/13 A2960 RMK AO2 T01310131
                 =
2016-05-05 06:15 METAR KPTB 051015Z AUTO 05005KT 7SM BKN006 OVC017 13/13 A2960 RMK AO2 T01320132
                 =
2016-05-05 05:55 METAR KPTB 050955Z AUTO 06007KT 10SM BKN006 OVC015 13/13 A2959 RMK AO2 T01320132
                 =
2016-05-05 05:35 METAR KPTB 050935Z AUTO 05009KT 10SM OVC006 13/13 A2959 RMK AO2 T01320132 =
2016-05-05 05:15 METAR KPTB 050915Z AUTO 05006KT 10SM -RA BKN006 OVC015 13/13 A2959 RMK AO2 LTG
                 DSNT W T01320132 =
2016-05-05 04:55 METAR KPTB 050855Z AUTO 04007KT 5SM -RA BKN006 BKN009 OVC015 13/13 A2959 RMK AO2
                 T01320132 =
2016-05-05 04:35 METAR KPTB 050835Z AUTO 04007KT 4SM -RA BKN004 OVC009 14/14 A2961 RMK AO2
                 T01350135 =
2016-05-05 04:15 METAR KPTB 050815Z AUTO 05004KT 2 1/2SM -RA OVC004 14/14 A2962 RMK AO2 T01370137
                 =
2016-05-05 03:55 METAR KPTB 050755Z AUTO 05004KT 2SM -RA OVC006 14/14 A2962 RMK AO2 T01370137 =
2016-05-05 03:35 METAR KPTB 050735Z AUTO 05006KT 4SM -RA OVC009 14/14 A2963 RMK AO2 T01400140 =
2016-05-05 03:15 METAR KPTB 050715Z AUTO 05009KT 7SM OVC009 14/14 A2963 RMK AO2 T01420142 =
2016-05-05 02:55 METAR KPTB 050655Z AUTO 03008KT 10SM OVC009 15/14 A2964 RMK AO2 T01450143 =
2016-05-05 02:35 METAR KPTB 050635Z AUTO 02006KT 10SM OVC009 15/14 A2963 RMK AO2 T01470144 =
2016-05-05 02:15 METAR KPTB 050615Z AUTO 04008KT 10SM BKN011 OVC018 15/14 A2964 RMK AO2 T01500143
                 =
2016-05-05 01:55 METAR KPTB 050555Z AUTO 04007KT 10SM OVC018 15/14 A2964 RMK AO2 T01500138 10176
                 20148 =
2016-05-05 01:35 METAR KPTB 050535Z AUTO 05006KT 10SM OVC012 15/14 A2964 RMK AO2 T01480138 =
2016-05-05 01:15 METAR KPTB 050515Z AUTO 08006KT 10SM OVC012 15/14 A2965 RMK AO2 T01480135 =
2016-05-05 00:55 METAR KPTB 050455Z AUTO 08006KT 10SM OVC010 15/14 A2965 RMK AO2 T01490137
                 402230149 =
2016-05-05 00:35 METAR KPTB 050435Z AUTO 09007KT 10SM OVC008 15/15 A2965 RMK AO2 T01510150 =
2016-05-05 00:15 METAR KPTB 050415Z AUTO 08004KT 10SM OVC008 15/15 A2965 RMK AO2 T01520152 =
2016-05-04 23:55 METAR KPTB 050355Z AUTO 11003KT 10SM OVC006 15/15 A2966 RMK AO2 T01510151 =
2016-05-04 23:35 METAR KPTB 050335Z AUTO 09005KT 10SM OVC006 15/15 A2966 RMK AO2 T01510151 =
2016-05-04 23:15 METAR KPTB 050315Z AUTO 08006KT 10SM OVC006 15/15 A2967 RMK AO2 T01510151 =
2016-05-04 22:55 METAR KPTB 050255Z AUTO 10009KT 10SM BKN008 OVC019 16/16 A2967 RMK AO2 T01550155
                 =
2016-05-04 22:35 METAR KPTB 050235Z AUTO 10008KT 10SM BKN008 BKN012 OVC019 16/16 A2967 RMK AO2
                 T01570157 =
2016-05-04 22:15 METAR KPTB 050215Z AUTO 11007KT 10SM BKN008 OVC012 16/16 A2966 RMK AO2 T01620162
                 =
2016-05-04 21:55 METAR KPTB 050155Z AUTO 06004KT 10SM OVC010 16/16 A2965 RMK AO2 T01600160 =
2016-05-04 21:35 METAR KPTB 050135Z AUTO 04004KT 10SM OVC012 16/16 A2964 RMK AO2 T01570157 =
2016-05-04 21:15 METAR KPTB 050115Z AUTO 01004KT 10SM BKN014 16/14 A2963 RMK AO2 T01600138 =
2016-05-04 20:55 METAR KPTB 050055Z AUTO 05005KT 10SM CLR 16/13 A2963 RMK AO2 T01600131 =
2016-05-04 20:35 METAR KPTB 050035Z AUTO 05006KT 10SM CLR 16/13 A2963 RMK AO2 T01630134 =
2016-05-04 20:15 METAR KPTB 050015Z AUTO 03008KT 10SM SCT095 17/13 A2963 RMK AO2 T01700133 =
2016-05-04 19:55 METAR KPTB 042355Z AUTO 03008KT 10SM SCT060 SCT075 BKN095 18/14 A2962 RMK AO2
                 T01770140 10223 20177 =
2016-05-04 19:35 METAR KPTB 042335Z AUTO 04006KT 10SM SCT060 BKN095 19/14 A2963 RMK AO2 T01860139
                 =
2016-05-04 19:15 METAR KPTB 042315Z AUTO 08005KT 10SM SCT070 BKN095 19/13 A2962 RMK AO2 T01910134
                 =
2016-05-04 18:55 METAR KPTB 042255Z AUTO 07007KT 10SM SCT070 BKN085 20/13 A2962 RMK AO2 T01970134
                 =
2016-05-04 18:35 METAR KPTB 042235Z AUTO 08006KT 10SM SCT050 SCT060 SCT075 20/14 A2961 RMK AO2
                 T02010138 =
2016-05-04 18:15 METAR KPTB 042215Z AUTO 06006KT 10SM SCT050 SCT060 BKN070 20/14 A2961 RMK AO2
                 LTG DSNT W T02030138 =
2016-05-04 17:55 METAR KPTB 042155Z AUTO 06008KT 10SM SCT050 SCT080 BKN095 20/13 A2960 RMK AO2
                 T02010134 =
2016-05-04 17:35 METAR KPTB 042135Z AUTO 05007KT 10SM SCT036 SCT044 BKN095 20/13 A2960 RMK AO2
                 T01950126 =
2016-05-04 17:15 METAR KPTB 042115Z AUTO 01009KT 10SM SCT036 SCT043 BKN095 20/14 A2960 RMK AO2
                 T02040135 =
2016-05-04 16:55 METAR KPTB 042055Z AUTO 00000KT 10SM SCT039 SCT050 BKN095 22/13 A2959 RMK AO2
                 T02150134 =
2016-05-04 16:35 METAR KPTB 042035Z AUTO 18004KT 10SM SCT039 SCT050 SCT060 22/14 A2959 RMK AO2
                 T02150135 =
2016-05-04 16:15 METAR KPTB 042015Z AUTO 00000KT 10SM CLR 22/14 A2959 RMK AO2 T02200141 =
2016-05-04 15:55 METAR KPTB 041955Z AUTO 15004KT 10SM SCT090 22/14 A2960 RMK AO2 T02150136 =
2016-05-04 15:35 METAR KPTB 041935Z AUTO 14003KT 10SM SCT022 SCT036 SCT050 21/14 A2962 RMK AO2
                 LTG DSNT N T02120141 =
2016-05-04 15:15 METAR KPTB 041915Z AUTO 00000KT 10SM SCT028 BKN060 OVC090 21/14 A2962 RMK AO2
                 T02090135 =
2016-05-04 14:55 METAR KPTB 041855Z AUTO 13003KT 10SM SCT031 BKN048 OVC090 21/14 A2963 RMK AO2
                 T02080140 =
2016-05-04 14:35 METAR KPTB 041835Z AUTO 00000KT 10SM SCT029 BKN036 OVC095 21/14 A2964 RMK AO2
                 T02100144 =
2016-05-04 14:15 METAR KPTB 041815Z AUTO 00000KT 10SM SCT023 BKN035 BKN110 20/14 A2964 RMK AO2
                 T02030139 =

Support USWX by starting your Amazon purchase here.